Time;durP1;ratioP1;P1;durP2;ratioP2;P2;SDS_P1;SDS_P2;PMS_P1;PMS_P2;Temp;Humidity;BMP_temperature;BMP_pressure;BME280_temperature;BME280_humidity;BME280_pressure;Samples;Min_cycle;Max_cycle;Signal;HPM_P1;HPM_P2
2023/03/23 00:02:35;;;;;;;4.22;2.10;;;;;;;10.49;100.00;99516.69;6284218;28;20528;-88
2023/03/23 00:05:36;;;;;;;3.38;2.10;;;;;;;10.33;100.00;99513.91;6256388;28;20051;-90
2023/03/23 00:08:45;;;;;;;6.38;2.13;;;;;;;10.14;100.00;99510.44;6306607;28;20472;-90
2023/03/23 00:11:45;;;;;;;5.18;2.08;;;;;;;10.01;100.00;99515.13;6283024;28;20048;-89
2023/03/23 00:14:47;;;;;;;3.78;2.25;;;;;;;9.87;100.00;99516.41;6274078;28;20044;-90
2023/03/23 00:17:49;;;;;;;4.88;2.28;;;;;;;9.75;100.00;99509.78;6257514;28;20043;-89
2023/03/23 00:20:55;;;;;;;3.83;2.00;;;;;;;9.68;100.00;99519.84;6289138;28;20037;-89
2023/03/23 00:23:56;;;;;;;7.28;2.33;;;;;;;9.62;100.00;99515.25;6283222;28;20047;-88
2023/03/23 00:26:58;;;;;;;4.20;2.30;;;;;;;9.60;100.00;99514.56;6284004;28;20041;-89
2023/03/23 00:29:59;;;;;;;4.28;2.15;;;;;;;9.55;100.00;99514.19;6281715;28;20102;-90
2023/03/23 00:32:59;;;;;;;6.30;2.00;;;;;;;9.48;100.00;99518.28;6284035;28;20040;-90
2023/03/23 00:36:00;;;;;;;2.90;2.20;;;;;;;9.44;100.00;99517.75;6264981;28;20352;-90
2023/03/23 00:39:03;;;;;;;5.13;2.17;;;;;;;9.47;100.00;99521.81;6266071;28;20052;-89
2023/03/23 00:42:05;;;;;;;3.78;2.17;;;;;;;9.50;100.00;99508.63;6264231;28;20041;-90
2023/03/23 00:45:10;;;;;;;4.93;2.58;;;;;;;9.53;100.00;99507.53;6292632;28;20032;-90
2023/03/23 00:48:18;;;;;;;4.32;2.30;;;;;;;9.48;100.00;99505.34;6284532;28;20070;-90
2023/03/23 00:51:19;;;;;;;3.95;2.30;;;;;;;9.56;100.00;99513.22;6283014;28;20734;-90
2023/03/23 00:54:20;;;;;;;5.10;2.40;;;;;;;9.68;100.00;99504.34;6282721;28;20534;-89
2023/03/23 00:57:24;;;;;;;7.28;2.30;;;;;;;9.62;100.00;99499.75;6282734;28;20437;-90
2023/03/23 01:00:26;;;;;;;6.35;2.50;;;;;;;9.63;100.00;99500.56;6282307;28;20562;-90
2023/03/23 01:03:27;;;;;;;4.20;2.30;;;;;;;9.71;100.00;99490.31;6265254;28;20043;-89
2023/03/23 01:06:30;;;;;;;5.72;2.40;;;;;;;9.60;100.00;99499.06;6248465;28;20479;-90
2023/03/23 01:09:32;;;;;;;3.28;2.25;;;;;;;9.63;100.00;99500.56;6261337;28;20109;-90
2023/03/23 01:12:32;;;;;;;5.32;2.58;;;;;;;9.69;100.00;99490.47;6280112;28;20239;-90
2023/03/23 01:15:33;;;;;;;3.08;2.33;;;;;;;9.61;100.00;99479.22;6265650;28;20600;-90
2023/03/23 01:18:34;;;;;;;4.57;2.38;;;;;;;9.73;100.00;99475.50;6283901;28;20106;-90
2023/03/23 01:21:36;;;;;;;7.60;2.45;;;;;;;9.72;100.00;99473.06;6277696;28;20048;-90
2023/03/23 01:24:36;;;;;;;7.00;2.30;;;;;;;9.54;100.00;99470.38;6266233;28;20561;-90
2023/03/23 01:27:38;;;;;;;4.25;2.35;;;;;;;9.59;100.00;99463.88;6281363;28;20337;-90
2023/03/23 01:30:39;;;;;;;3.97;2.30;;;;;;;9.63;100.00;99467.78;6283927;28;20048;-90
2023/03/23 01:33:41;;;;;;;5.53;2.17;;;;;;;9.57;100.00;99463.19;6286693;28;20048;-90
2023/03/23 01:36:42;;;;;;;4.00;2.72;;;;;;;9.58;100.00;99469.97;6287288;28;20052;-90
2023/03/23 01:39:42;;;;;;;6.93;2.70;;;;;;;9.56;100.00;99455.56;6286045;28;20052;-90
2023/03/23 01:42:43;;;;;;;3.92;2.00;;;;;;;9.61;100.00;99455.97;6286337;28;20475;-90
2023/03/23 01:45:47;;;;;;;2.95;1.92;;;;;;;9.58;100.00;99449.31;6261819;28;20440;-90
2023/03/23 01:48:50;;;;;;;4.03;2.50;;;;;;;9.62;100.00;99449.84;6287184;28;20052;-89
2023/03/23 01:51:58;;;;;;;4.07;2.65;;;;;;;9.70;100.00;99450.75;6287255;28;20300;-89
2023/03/23 01:54:58;;;;;;;3.10;2.45;;;;;;;9.64;100.00;99453.13;6285326;28;20090;-89
2023/03/23 01:58:00;;;;;;;4.72;2.67;;;;;;;9.64;100.00;99437.63;6285711;28;20140;-90
2023/03/23 02:01:04;;;;;;;4.40;2.03;;;;;;;9.63;100.00;99441.94;6268530;28;20041;-90
2023/03/23 02:04:07;;;;;;;3.40;2.28;;;;;;;9.58;100.00;99435.56;6258988;28;20202;-90
2023/03/23 02:07:12;;;;;;;2.38;2.17;;;;;;;9.56;100.00;99443.47;6254290;28;20048;-91
2023/03/23 02:10:13;;;;;;;3.95;2.30;;;;;;;9.66;100.00;99441.69;6281846;28;20132;-90
2023/03/23 02:13:14;;;;;;;3.00;2.67;;;;;;;9.67;100.00;99447.66;6290604;28;20049;-89
2023/03/23 02:16:23;;;;;;;2.40;1.83;;;;;;;9.69;100.00;99431.06;6285405;28;20041;-89
2023/03/23 02:19:55;;;;;;;3.25;2.13;;;;;;;9.66;100.00;99418.44;6269581;28;20036;-89
2023/03/23 02:23:24;;;;;;;2.80;2.00;;;;;;;9.65;100.00;99427.13;6281469;28;20099;-89
2023/03/23 02:26:43;;;;;;;4.70;2.17;;;;;;;9.63;100.00;99416.09;6276152;28;20048;-89
2023/03/23 02:30:02;;;;;;;5.47;2.42;;;;;;;9.65;100.00;99413.38;6285192;28;20158;-88
2023/03/23 02:33:49;;;;;;;3.55;2.13;;;;;;;9.69;100.00;99419.91;6286356;28;20044;-87
2023/03/23 02:36:59;;;;;;;3.47;2.13;;;;;;;9.60;100.00;99418.97;6279237;28;20461;-88
2023/03/23 02:40:08;;;;;;;3.83;2.10;;;;;;;9.60;100.00;99389.75;6245773;28;20039;-88
2023/03/23 02:43:14;;;;;;;2.20;1.97;;;;;;;9.58;100.00;99389.88;6283302;28;20055;-89
2023/03/23 02:46:16;;;;;;;4.43;2.13;;;;;;;9.56;100.00;99403.91;6268934;28;20037;-90
2023/03/23 02:49:19;;;;;;;4.95;2.30;;;;;;;9.48;100.00;99409.78;6285012;28;20467;-89
2023/03/23 02:52:24;;;;;;;2.50;2.08;;;;;;;9.44;100.00;99416.16;6265333;28;20581;-89
2023/03/23 02:55:29;;;;;;;2.75;2.38;;;;;;;9.47;100.00;99423.66;6292290;28;20576;-89
2023/03/23 02:58:33;;;;;;;7.57;2.95;;;;;;;9.50;100.00;99407.88;6266758;28;20113;-89
2023/03/23 03:01:36;;;;;;;5.25;2.50;;;;;;;9.52;100.00;99405.97;6286554;28;20106;-88
2023/03/23 03:04:45;;;;;;;3.75;2.55;;;;;;;9.52;100.00;99393.06;6281600;28;20522;-89
2023/03/23 03:07:55;;;;;;;5.90;2.95;;;;;;;9.55;100.00;99390.19;6286658;28;20430;-89
2023/03/23 03:11:10;;;;;;;5.40;2.75;;;;;;;9.50;100.00;99389.78;6268908;28;20163;-88
2023/03/23 03:14:31;;;;;;;3.72;2.20;;;;;;;9.48;100.00;99399.44;6296394;28;20542;-88
2023/03/23 03:17:39;;;;;;;3.93;2.70;;;;;;;9.47;100.00;99413.34;6273330;28;20047;-90
2023/03/23 03:20:45;;;;;;;4.47;2.63;;;;;;;9.49;100.00;99421.75;6274648;28;20029;-90
2023/03/23 03:23:49;;;;;;;7.15;3.10;;;;;;;9.47;100.00;99411.56;6272618;28;20510;-90
2023/03/23 03:26:52;;;;;;;4.95;2.80;;;;;;;9.49;100.00;99403.69;6284064;28;20051;-90
2023/03/23 03:30:03;;;;;;;3.38;2.55;;;;;;;9.48;100.00;99394.28;6284545;28;20059;-90
2023/03/23 03:33:04;;;;;;;5.15;2.72;;;;;;;9.49;100.00;99403.69;6284430;28;20032;-89
2023/03/23 03:36:08;;;;;;;6.93;3.15;;;;;;;9.45;100.00;99395.38;6252419;28;20040;-89
2023/03/23 03:39:10;;;;;;;4.90;3.40;;;;;;;9.44;100.00;99406.69;6250398;28;20478;-90
2023/03/23 03:42:12;;;;;;;3.55;2.65;;;;;;;9.41;100.00;99408.72;6265148;28;20520;-90
2023/03/23 03:45:18;;;;;;;3.42;2.28;;;;;;;9.37;100.00;99399.63;6255465;28;20040;-90
2023/03/23 03:48:20;;;;;;;2.58;2.10;;;;;;;9.38;100.00;99390.91;6277767;28;20689;-90
2023/03/23 03:51:21;;;;;;;4.78;2.60;;;;;;;9.27;100.00;99387.56;6242991;28;20036;-90
2023/03/23 03:54:25;;;;;;;4.85;2.80;;;;;;;9.25;100.00;99389.47;6253019;28;20098;-90
2023/03/23 03:57:27;;;;;;;4.20;2.33;;;;;;;9.25;100.00;99386.06;6286551;28;20052;-90
2023/03/23 04:00:50;;;;;;;5.55;2.40;;;;;;;9.23;100.00;99378.47;6274843;28;20498;-90
2023/03/23 04:03:56;;;;;;;4.32;2.50;;;;;;;9.17;100.00;99375.66;6287236;28;20044;-90
2023/03/23 04:07:13;;;;;;;5.78;2.58;;;;;;;9.14;100.00;99368.16;6283892;28;20269;-90
2023/03/23 04:10:15;;;;;;;3.10;2.03;;;;;;;9.12;100.00;99377.81;6268252;28;20049;-90
2023/03/23 04:13:19;;;;;;;2.67;2.08;;;;;;;9.17;100.00;99378.22;6273045;28;20098;-91
2023/03/23 04:16:35;;;;;;;3.08;2.47;;;;;;;9.13;100.00;99377.69;6285940;28;20040;-90
2023/03/23 04:19:38;;;;;;;5.28;2.53;;;;;;;9.16;100.00;99382.56;6267975;28;20045;-90
2023/03/23 04:22:43;;;;;;;2.50;2.30;;;;;;;9.15;100.00;99388.69;6268132;28;20047;-90
2023/03/23 04:25:44;;;;;;;3.08;2.25;;;;;;;9.13;100.00;99379.44;6284850;28;20032;-90
2023/03/23 04:28:45;;;;;;;5.10;1.98;;;;;;;9.12;100.00;99363.16;6285165;28;20393;-90
2023/03/23 04:32:18;;;;;;;3.67;1.90;;;;;;;9.10;100.00;99361.66;6216701;28;20057;-90
2023/03/23 04:35:26;;;;;;;3.30;2.10;;;;;;;9.12;100.00;99360.56;6214311;28;20108;-90
2023/03/23 04:38:45;;;;;;;2.50;1.90;;;;;;;9.09;100.00;99376.31;6217015;28;20045;-90
2023/03/23 04:41:55;;;;;;;4.03;1.75;;;;;;;9.05;100.00;99369.81;6204738;28;20108;-90
2023/03/23 04:45:28;;;;;;;2.15;1.83;;;;;;;9.07;100.00;99370.50;6219245;28;20041;-90
2023/03/23 04:48:32;;;;;;;2.05;1.65;;;;;;;8.96;100.00;99371.47;6193249;28;20160;-90
2023/03/23 04:51:50;;;;;;;;;;;;;;;8.94;100.00;99367.41;6214580;28;20183;-89
2023/03/23 04:55:15;;;;;;;2.92;1.65;;;;;;;8.94;100.00;99349.34;6199196;28;19931;-89
2023/03/23 04:58:24;;;;;;;3.83;1.67;;;;;;;8.91;100.00;99354.78;6205649;28;20132;-90
2023/03/23 05:01:46;;;;;;;2.53;1.73;;;;;;;8.90;100.00;99360.91;6194239;28;20491;-89
2023/03/23 05:04:51;;;;;;;4.97;1.75;;;;;;;8.92;100.00;99364.97;6180092;28;20125;-89
2023/03/23 05:07:55;;;;;;;3.10;1.67;;;;;;;8.96;100.00;99362.91;6234394;28;20048;-89
2023/03/23 05:11:00;;;;;;;4.75;1.70;;;;;;;9.00;100.00;99380.56;6262028;28;20041;-89
2023/03/23 05:14:05;;;;;;;3.03;1.73;;;;;;;8.99;100.00;99381.53;6268656;28;20044;-90
2023/03/23 05:17:07;;;;;;;5.15;1.67;;;;;;;8.97;100.00;99378.28;6285472;28;20119;-89
2023/03/23 05:20:11;;;;;;;2.10;1.48;;;;;;;8.96;100.00;99370.66;6267131;28;20069;-90
2023/03/23 05:23:20;;;;;;;4.50;1.40;;;;;;;8.98;100.00;99373.91;6284159;28;20108;-89
2023/03/23 05:26:28;;;;;;;3.35;1.65;;;;;;;9.02;100.00;99375.28;6265495;28;20079;-89
2023/03/23 05:29:40;;;;;;;2.28;1.45;;;;;;;9.23;100.00;99375.88;6274894;28;20506;-89
2023/03/23 05:32:41;;;;;;;2.50;1.90;;;;;;;9.25;100.00;99371.41;6262241;28;20055;-90
2023/03/23 05:36:10;;;;;;;3.30;1.35;;;;;;;9.26;100.00;99370.44;6276324;28;20087;-89
2023/03/23 05:39:44;;;;;;;2.33;1.40;;;;;;;9.25;100.00;99368.81;6219768;28;20057;-89
2023/03/23 05:43:04;;;;;;;2.97;1.30;;;;;;;9.30;100.00;99368.38;6212199;28;20662;-89
2023/03/23 05:46:16;;;;;;;2.15;1.48;;;;;;;9.30;100.00;99370.16;6225231;28;20144;-89
2023/03/23 05:49:17;;;;;;;2.80;1.35;;;;;;;9.35;100.00;99360.22;6231335;28;20053;-89
2023/03/23 05:52:20;;;;;;;1.60;1.30;;;;;;;9.40;100.00;99365.78;6232530;28;20037;-89
2023/03/23 05:55:21;;;;;;;2.80;1.35;;;;;;;9.49;100.00;99362.34;6179507;28;20049;-90
2023/03/23 05:58:32;;;;;;;2.97;1.33;;;;;;;9.55;100.00;99353.19;6215424;28;20550;-89
2023/03/23 06:01:35;;;;;;;1.65;1.35;;;;;;;9.59;100.00;99362.28;6230612;28;20434;-89
2023/03/23 06:04:37;;;;;;;2.63;1.63;;;;;;;9.65;100.00;99359.94;6215831;28;20125;-89
2023/03/23 06:08:01;;;;;;;2.65;1.58;;;;;;;9.79;100.00;99360.41;6216390;28;20764;-89
2023/03/23 06:11:02;;;;;;;2.17;1.48;;;;;;;9.77;100.00;99360.56;6234258;28;20045;-89
2023/03/23 06:14:07;;;;;;;3.17;1.33;;;;;;;9.87;100.00;99360.50;6255854;28;20056;-89
2023/03/23 06:17:10;;;;;;;2.55;1.30;;;;;;;9.91;100.00;99351.47;6283778;28;20041;-89
2023/03/23 06:20:11;;;;;;;1.92;1.10;;;;;;;10.03;100.00;99334.81;6291905;28;20083;-90
2023/03/23 06:23:15;;;;;;;2.17;1.33;;;;;;;10.01;100.00;99343.66;6292558;28;20032;-89
2023/03/23 06:26:18;;;;;;;1.48;1.23;;;;;;;9.93;100.00;99331.47;6257083;28;20070;-89
2023/03/23 06:29:21;;;;;;;1.73;1.23;;;;;;;9.93;100.00;99336.66;6281633;28;20439;-90
2023/03/23 06:32:30;;;;;;;2.28;1.30;;;;;;;10.02;100.00;99343.53;6292839;28;20036;-89
2023/03/23 06:35:32;;;;;;;2.05;1.15;;;;;;;10.09;100.00;99336.00;6289344;28;20044;-89
2023/03/23 06:38:56;;;;;;;2.78;1.00;;;;;;;10.19;100.00;99346.28;6247534;28;20474;-89
2023/03/23 06:42:11;;;;;;;2.17;1.17;;;;;;;10.32;100.00;99351.91;6287392;28;20047;-89
2023/03/23 06:45:16;;;;;;;3.22;1.20;;;;;;;10.45;100.00;99365.28;6258467;28;20044;-89
2023/03/23 06:48:19;;;;;;;2.97;1.17;;;;;;;10.53;100.00;99359.34;6285863;28;20494;-89
2023/03/23 06:51:20;;;;;;;2.28;1.27;;;;;;;10.52;100.00;99355.97;6254303;28;20044;-90
2023/03/23 06:54:26;;;;;;;2.45;1.25;;;;;;;10.45;100.00;99367.06;6266514;28;20730;-89
2023/03/23 06:57:27;;;;;;;1.48;1.20;;;;;;;10.44;100.00;99371.44;6287693;28;20365;-89
2023/03/23 07:00:29;;;;;;;1.58;1.23;;;;;;;10.38;100.00;99368.63;6276009;28;20044;-89
2023/03/23 07:03:32;;;;;;;2.42;1.35;;;;;;;10.28;100.00;99359.16;6270132;28;20044;-89
2023/03/23 07:06:35;;;;;;;1.30;1.20;;;;;;;10.30;100.00;99366.78;6287039;28;20503;-89
2023/03/23 07:09:36;;;;;;;1.77;1.38;;;;;;;10.35;100.00;99367.94;6259085;28;20040;-89
2023/03/23 07:12:37;;;;;;;2.15;1.38;;;;;;;10.42;100.00;99373.34;6293380;28;20954;-88
2023/03/23 07:15:41;;;;;;;1.60;1.10;;;;;;;10.57;100.00;99363.28;6242565;28;20090;-89
2023/03/23 07:18:42;;;;;;;1.42;1.33;;;;;;;10.76;100.00;99368.28;6269692;28;20418;-89
2023/03/23 07:21:44;;;;;;;2.42;1.48;;;;;;;10.89;100.00;99357.53;6285951;28;20117;-88
2023/03/23 07:24:46;;;;;;;1.73;1.40;;;;;;;11.03;100.00;99357.91;6289901;28;20101;-89
2023/03/23 07:28:00;;;;;;;2.03;1.38;;;;;;;11.18;100.00;99351.22;6297749;28;20509;-89
2023/03/23 07:31:02;;;;;;;1.70;1.40;;;;;;;11.23;100.00;99351.59;6304667;28;20054;-89
2023/03/23 07:34:03;;;;;;;2.65;1.23;;;;;;;11.20;100.00;99363.06;6269795;28;20090;-89
2023/03/23 07:37:23;;;;;;;1.85;1.40;;;;;;;11.16;100.00;99364.31;6286639;28;20452;-89
2023/03/23 07:40:25;;;;;;;2.13;1.02;;;;;;;11.20;100.00;99351.88;6285618;28;20032;-88
2023/03/23 07:43:29;;;;;;;2.35;1.55;;;;;;;11.27;100.00;99352.06;6269148;28;20391;-88
2023/03/23 07:46:54;;;;;;;3.00;1.52;;;;;;;11.32;100.00;99349.81;6291914;28;20071;-89
2023/03/23 07:50:04;;;;;;;2.15;1.60;;;;;;;11.34;100.00;99345.31;6288691;28;20510;-89
2023/03/23 07:53:13;;;;;;;2.72;1.65;;;;;;;11.38;100.00;99344.03;6286199;28;20037;-89
2023/03/23 07:56:18;;;;;;;4.47;2.00;;;;;;;11.58;100.00;99347.19;6285455;28;20427;-89
2023/03/23 07:59:27;;;;;;;2.97;1.58;;;;;;;11.86;100.00;99347.75;6254149;28;20437;-89
2023/03/23 08:02:31;;;;;;;2.05;1.30;;;;;;;12.02;100.00;99347.84;6293470;28;20058;-89
2023/03/23 08:05:51;;;;;;;3.05;1.30;;;;;;;12.22;100.00;99350.94;6292838;28;20037;-89
2023/03/23 08:09:06;;;;;;;5.07;1.63;;;;;;;12.36;100.00;99359.03;6274105;28;20114;-89
2023/03/23 08:12:28;;;;;;;2.00;1.35;;;;;;;12.43;100.00;99354.84;6289348;28;20045;-89
2023/03/23 08:15:51;;;;;;;3.25;1.80;;;;;;;12.46;100.00;99357.91;6287023;28;20060;-89
2023/03/23 08:19:10;;;;;;;4.55;1.50;;;;;;;12.66;100.00;99360.19;6290507;28;20100;-89
2023/03/23 08:22:30;;;;;;;2.55;1.35;;;;;;;12.91;100.00;99368.75;6281986;28;20143;-89
2023/03/23 08:25:49;;;;;;;2.53;1.60;;;;;;;13.07;100.00;99375.72;6281917;28;20049;-89
2023/03/23 08:29:05;;;;;;;4.72;1.80;;;;;;;13.10;100.00;99375.38;6270883;28;20176;-89
2023/03/23 08:32:32;;;;;;;1.58;1.48;;;;;;;13.10;100.00;99373.59;6283137;28;20052;-88
2023/03/23 08:36:03;;;;;;;6.40;2.37;;;;;;;13.15;100.00;99375.69;6222346;28;20459;-88
2023/03/23 08:39:24;;;;;;;3.20;1.40;;;;;;;13.26;100.00;99366.72;6208986;28;20817;-89
2023/03/23 08:42:34;;;;;;;2.92;1.42;;;;;;;13.45;100.00;99371.56;6220488;28;20512;-88
2023/03/23 08:45:47;;;;;;;2.25;1.40;;;;;;;13.56;100.00;99371.22;6211206;28;20081;-88
2023/03/23 08:49:13;;;;;;;5.47;1.40;;;;;;;13.60;100.00;99378.66;6219410;28;20060;-88
2023/03/23 08:52:29;;;;;;;4.30;1.35;;;;;;;13.65;100.00;99376.38;6231743;28;20578;-89
2023/03/23 08:55:44;;;;;;;4.63;1.60;;;;;;;13.78;100.00;99389.63;6200576;28;20060;-88
2023/03/23 08:59:03;;;;;;;3.50;1.58;;;;;;;13.72;100.00;99395.53;6213623;28;20053;-88
2023/03/23 09:02:24;;;;;;;3.08;1.70;;;;;;;13.56;100.00;99388.59;6208846;28;20041;-88
2023/03/23 09:05:31;;;;;;;2.38;1.35;;;;;;;13.57;100.00;99388.44;6198208;28;20057;-88
2023/03/23 09:08:50;;;;;;;4.63;1.60;;;;;;;13.76;100.00;99383.78;6209745;28;20048;-88
2023/03/23 09:11:54;;;;;;;2.53;1.45;;;;;;;13.80;100.00;99395.47;6242047;28;20450;-88
2023/03/23 09:14:55;;;;;;;3.75;1.80;;;;;;;13.75;100.00;99403.78;6278464;28;20504;-88
2023/03/23 09:17:57;;;;;;;2.40;1.45;;;;;;;13.84;100.00;99390.72;6286178;28;20037;-88
2023/03/23 09:20:59;;;;;;;3.13;1.58;;;;;;;13.75;100.00;99397.78;6288582;28;20501;-88
2023/03/23 09:24:01;;;;;;;3.17;2.03;;;;;;;13.74;100.00;99396.16;6285389;28;20063;-87
2023/03/23 09:27:11;;;;;;;4.53;1.88;;;;;;;13.86;100.00;99399.97;6284755;28;20569;-88
2023/03/23 09:30:19;;;;;;;3.70;1.77;;;;;;;13.92;100.00;99404.53;6283723;28;20063;-88
2023/03/23 09:33:19;;;;;;;5.13;1.77;;;;;;;13.98;100.00;99405.63;6267957;28;20036;-88
2023/03/23 09:36:21;;;;;;;2.95;1.30;;;;;;;13.98;100.00;99411.63;6276119;28;20037;-88
2023/03/23 09:39:22;;;;;;;5.57;1.60;;;;;;;13.87;100.00;99422.44;6277644;28;20448;-88
2023/03/23 09:42:55;;;;;;;2.05;1.45;;;;;;;13.76;100.00;99417.59;6267089;28;20032;-88
2023/03/23 09:46:30;;;;;;;4.10;1.50;;;;;;;13.68;100.00;99413.25;6182125;28;20185;-88
2023/03/23 09:49:59;;;;;;;2.20;1.40;;;;;;;13.58;100.00;99426.44;6182931;28;20153;-88
2023/03/23 09:53:06;;;;;;;5.55;1.85;;;;;;;13.41;100.00;99421.47;6172015;28;20043;-88
2023/03/23 09:56:14;;;;;;;4.50;1.48;;;;;;;13.34;100.00;99426.50;6188336;28;20499;-88
2023/03/23 09:59:43;;;;;;;3.75;1.50;;;;;;;13.34;100.00;99429.94;6188437;28;20108;-88
2023/03/23 10:03:15;;;;;;;4.20;1.70;;;;;;;13.27;100.00;99425.56;6181359;28;20058;-90
2023/03/23 10:06:17;;;;;;;3.88;1.67;;;;;;;13.19;100.00;99433.31;6189943;28;20595;-87
2023/03/23 10:09:20;;;;;;;4.72;1.60;;;;;;;13.17;100.00;99441.31;6187855;28;20117;-88
2023/03/23 10:12:51;;;;;;;5.00;1.60;;;;;;;13.34;100.00;99444.69;6191671;28;20050;-88
2023/03/23 10:16:06;;;;;;;2.97;1.38;;;;;;;13.69;100.00;99446.09;6187654;28;20078;-88
2023/03/23 10:19:32;;;;;;;4.45;1.42;;;;;;;13.89;100.00;99445.69;6170849;28;20613;-88
2023/03/23 10:22:39;;;;;;;3.75;1.80;;;;;;;13.99;100.00;99460.09;6250306;28;20077;-88
2023/03/23 10:25:55;;;;;;;6.22;1.80;;;;;;;13.95;100.00;99453.59;6286795;28;20124;-88
2023/03/23 10:29:30;;;;;;;3.63;1.50;;;;;;;14.04;100.00;99454.41;6289149;28;20047;-87
2023/03/23 10:32:43;;;;;;;5.03;1.77;;;;;;;14.12;100.00;99458.75;6217518;28;20131;-88
2023/03/23 10:35:51;;;;;;;5.68;1.92;;;;;;;14.39;100.00;99447.84;6235058;28;20053;-88
2023/03/23 10:39:05;;;;;;;5.55;1.60;;;;;;;14.56;100.00;99463.41;6234094;28;20072;-87
2023/03/23 10:42:07;;;;;;;3.13;1.88;;;;;;;14.47;100.00;99461.81;6235523;28;20531;-87
2023/03/23 10:45:19;;;;;;;5.47;1.80;;;;;;;14.73;100.00;99464.09;6235478;28;20045;-88
2023/03/23 10:48:38;;;;;;;3.58;1.90;;;;;;;14.92;100.00;99460.22;6201376;28;20541;-88
2023/03/23 10:51:59;;;;;;;4.60;1.90;;;;;;;15.21;100.00;99460.28;6217719;28;20205;-88
2023/03/23 10:55:14;;;;;;;7.10;1.70;;;;;;;15.66;100.00;99455.88;6235601;28;20049;-88
2023/03/23 10:58:31;;;;;;;5.07;1.80;;;;;;;16.03;100.00;99462.00;6234395;28;20656;-88
2023/03/23 11:01:34;;;;;;;3.35;1.50;;;;;;;16.34;100.00;99455.72;6211309;28;20103;-88
2023/03/23 11:04:35;;;;;;;8.43;2.00;;;;;;;16.41;100.00;99451.38;6214037;28;20087;-88
2023/03/23 11:07:37;;;;;;;2.80;1.35;;;;;;;16.83;100.00;99456.81;6242583;28;20052;-88
2023/03/23 11:10:41;;;;;;;5.00;1.90;;;;;;;17.17;100.00;99456.09;6288197;28;20052;-88
2023/03/23 11:13:45;;;;;;;4.80;2.47;;;;;;;17.26;100.00;99451.50;6290282;28;20146;-88
2023/03/23 11:16:52;;;;;;;4.15;1.40;;;;;;;17.22;100.00;99462.38;6287883;28;20044;-88
2023/03/23 11:20:00;;;;;;;5.18;1.90;;;;;;;17.04;100.00;99474.28;6279042;28;20037;-88
2023/03/23 11:23:07;;;;;;;5.50;1.92;;;;;;;16.68;100.00;99454.25;6292878;28;20133;-88
2023/03/23 11:26:30;;;;;;;4.88;1.70;;;;;;;16.67;100.00;99453.44;6269651;28;20048;-88
2023/03/23 11:29:31;;;;;;;6.20;2.35;;;;;;;16.58;100.00;99457.97;6283513;28;20052;-88
2023/03/23 11:32:32;;;;;;;4.97;1.80;;;;;;;16.27;100.00;99455.66;6273708;28;20508;-88
2023/03/23 11:35:33;;;;;;;3.85;1.73;;;;;;;16.26;100.00;99446.19;6285472;28;20055;-88
2023/03/23 11:38:34;;;;;;;6.88;2.42;;;;;;;16.35;100.00;99459.97;6282807;28;20119;-87
2023/03/23 11:41:38;;;;;;;4.25;1.85;;;;;;;16.04;100.00;99452.38;6288010;28;20605;-87
2023/03/23 11:44:49;;;;;;;6.65;1.95;;;;;;;15.93;100.00;99456.28;6287873;28;20040;-87
2023/03/23 11:47:55;;;;;;;4.95;1.80;;;;;;;15.83;100.00;99453.94;6276445;28;20032;-87
2023/03/23 11:50:59;;;;;;;5.57;1.88;;;;;;;15.83;100.00;99453.13;6285343;28;20044;-88
2023/03/23 11:54:26;;;;;;;6.10;1.95;;;;;;;15.75;100.00;99443.59;6286304;28;20044;-88
2023/03/23 11:57:28;;;;;;;6.20;2.00;;;;;;;15.71;100.00;99452.78;6285119;28;20052;-87
2023/03/23 12:00:29;;;;;;;5.03;1.60;;;;;;;15.58;100.00;99453.38;6287267;28;20406;-87
2023/03/23 12:04:07;;;;;;;6.78;1.98;;;;;;;15.07;100.00;99471.47;6286614;28;20044;-87
2023/03/23 12:07:38;;;;;;;5.20;1.90;;;;;;;14.38;100.00;99524.34;6283934;28;20551;-88
2023/03/23 12:10:58;;;;;;;;;;;;;;;13.32;100.00;99532.44;6277195;28;20052;-88
2023/03/23 12:14:24;;;;;;;;;;;;;;;12.27;100.00;99529.47;6292464;28;19928;-88
2023/03/23 12:17:40;;;;;;;5.82;2.25;;;;;;;11.82;100.00;99512.38;6284301;28;20353;-89
2023/03/23 12:21:00;;;;;;;3.25;1.40;;;;;;;12.00;100.00;99501.94;6287012;28;20033;-90
2023/03/23 12:24:21;;;;;;;3.22;1.20;;;;;;;12.15;100.00;99518.56;6266523;28;20075;-90
2023/03/23 12:27:35;;;;;;;2.05;1.25;;;;;;;12.42;100.00;99527.09;6267334;28;20064;-90
2023/03/23 12:30:57;;;;;;;1.52;0.80;;;;;;;12.42;100.00;99533.09;6284369;28;20879;-89
2023/03/23 12:34:16;;;;;;;2.55;1.00;;;;;;;12.32;100.00;99535.00;6281916;28;20498;-88
2023/03/23 12:37:40;;;;;;;2.75;0.90;;;;;;;12.24;100.00;99532.38;6285073;28;20048;-89
2023/03/23 12:41:01;;;;;;;1.00;0.70;;;;;;;12.14;100.00;99544.66;6284493;28;20185;-88
2023/03/23 12:44:14;;;;;;;2.88;0.80;;;;;;;12.01;100.00;99565.84;6280494;28;20096;-88
2023/03/23 12:47:37;;;;;;;0.70;0.47;;;;;;;11.78;100.00;99548.19;6280613;28;20044;-88
2023/03/23 12:50:57;;;;;;;0.77;0.65;;;;;;;11.92;100.00;99546.00;6282526;28;20036;-88
2023/03/23 12:54:24;;;;;;;0.80;0.50;;;;;;;11.98;100.00;99538.44;6274913;28;20032;-88
2023/03/23 12:57:37;;;;;;;1.27;0.50;;;;;;;11.99;100.00;99524.50;6293503;28;20275;-88
2023/03/23 13:01:01;;;;;;;0.70;0.50;;;;;;;12.06;100.00;99535.06;6293461;28;20091;-88
2023/03/23 13:04:11;;;;;;;1.10;0.55;;;;;;;12.32;100.00;99544.56;6284980;28;20048;-88
2023/03/23 13:07:22;;;;;;;1.70;0.47;;;;;;;12.36;100.00;99553.69;6279646;28;20044;-87
2023/03/23 13:10:33;;;;;;;1.85;0.50;;;;;;;12.07;100.00;99537.50;6267259;28;20306;-87
2023/03/23 13:13:56;;;;;;;1.73;0.43;;;;;;;11.97;100.00;99541.97;6288128;28;20078;-87
2023/03/23 13:17:24;;;;;;;2.05;0.50;;;;;;;12.07;100.00;99529.72;6281338;28;20045;-87
2023/03/23 13:20:51;;;;;;;1.90;0.40;;;;;;;12.34;100.00;99538.25;6271086;28;20041;-87
2023/03/23 13:24:15;;;;;;;0.95;0.50;;;;;;;12.29;100.00;99536.13;6285179;28;20075;-87
2023/03/23 13:27:17;;;;;;;1.25;0.50;;;;;;;12.18;100.00;99544.19;6287000;28;20044;-87
2023/03/23 13:30:28;;;;;;;0.77;0.40;;;;;;;12.03;100.00;99531.00;6268022;28;20135;-87
2023/03/23 13:33:32;;;;;;;1.42;0.60;;;;;;;12.00;100.00;99552.06;6272394;28;20029;-87
2023/03/23 13:36:38;;;;;;;1.13;0.50;;;;;;;11.85;100.00;99554.38;6284891;28;20041;-87
2023/03/23 13:40:13;;;;;;;0.90;0.60;;;;;;;11.86;100.00;99565.56;6288266;28;20045;-87
2023/03/23 13:43:31;;;;;;;0.88;0.47;;;;;;;12.14;100.00;99563.63;6280866;28;20056;-87
2023/03/23 13:46:33;;;;;;;1.25;0.45;;;;;;;12.14;100.00;99563.63;6294506;28;20045;-87
2023/03/23 13:49:45;;;;;;;1.10;0.40;;;;;;;12.26;100.00;99571.97;6268878;28;20105;-86
2023/03/23 13:52:45;;;;;;;0.68;0.40;;;;;;;12.29;100.00;99559.47;6270661;28;20127;-87
2023/03/23 13:56:06;;;;;;;1.40;0.40;;;;;;;12.28;100.00;99554.47;6287260;28;20048;-87
2023/03/23 13:59:46;;;;;;;1.50;0.38;;;;;;;11.98;100.00;99551.41;6290455;28;20041;-88
2023/03/23 14:02:49;;;;;;;0.60;0.40;;;;;;;11.97;100.00;99552.34;6288119;28;20035;-87
2023/03/23 14:06:03;;;;;;;0.55;0.40;;;;;;;12.12;100.00;99552.59;6290155;28;20047;-87
2023/03/23 14:09:37;;;;;;;2.03;0.55;;;;;;;12.13;100.00;99556.03;6252815;28;20036;-87
2023/03/23 14:12:38;;;;;;;;;;;;;;;11.97;100.00;99556.72;6290646;28;20397;-87
2023/03/23 14:15:58;;;;;;;2.67;0.80;;;;;;;11.98;100.00;99533.25;6299606;28;19924;-87
2023/03/23 14:19:01;;;;;;;1.95;0.60;;;;;;;12.36;100.00;99530.31;6289169;28;20032;-86
2023/03/23 14:22:02;;;;;;;1.70;0.75;;;;;;;13.10;100.00;99529.47;6292924;28;20036;-87
2023/03/23 14:25:12;;;;;;;1.40;0.90;;;;;;;13.99;100.00;99526.94;6287679;28;20398;-88
2023/03/23 14:28:21;;;;;;;2.05;0.77;;;;;;;14.48;100.00;99537.13;6278144;28;20677;-87
2023/03/23 14:31:27;;;;;;;1.85;0.95;;;;;;;14.61;100.00;99534.81;6287439;28;20044;-87
2023/03/23 14:34:32;;;;;;;1.60;1.00;;;;;;;14.69;100.00;99540.97;6298127;28;20264;-87
2023/03/23 14:37:36;;;;;;;2.42;0.90;;;;;;;14.99;100.00;99549.72;6285185;28;20071;-87
2023/03/23 14:40:37;;;;;;;2.03;1.00;;;;;;;15.23;100.00;99554.75;6281635;28;20072;-87
2023/03/23 14:43:38;;;;;;;1.38;1.10;;;;;;;15.18;100.00;99564.91;6291131;28;20045;-87
2023/03/23 14:46:42;;;;;;;2.55;1.38;;;;;;;14.76;100.00;99563.56;6270260;28;20048;-87
2023/03/23 14:49:46;;;;;;;1.58;1.20;;;;;;;14.75;100.00;99563.72;6283989;28;20051;-87